createdAt,value
2019-02-10T00:00:02.203Z,0
2019-02-10T00:01:01.930Z,0
2019-02-10T00:02:02.132Z,0
2019-02-10T00:03:02.140Z,0
2019-02-10T00:04:02.376Z,0
2019-02-10T00:05:01.904Z,0
2019-02-10T00:06:01.815Z,0
2019-02-10T00:07:01.840Z,0
2019-02-10T00:08:02.304Z,0
2019-02-10T00:09:04.173Z,0
2019-02-10T00:10:02.034Z,0
2019-02-10T00:11:02.270Z,0
2019-02-10T00:12:02.191Z,0
2019-02-10T00:13:02.264Z,0
2019-02-10T00:14:01.799Z,0
2019-02-10T00:15:01.758Z,0
2019-02-10T00:16:01.996Z,0
2019-02-10T00:17:01.989Z,0
2019-02-10T00:18:01.966Z,0
2019-02-10T00:19:02.223Z,0
2019-02-10T00:20:01.697Z,0
2019-02-10T00:21:01.722Z,0
2019-02-10T00:22:01.474Z,0
2019-02-10T00:23:01.948Z,0
2019-02-10T00:24:01.679Z,0
2019-02-10T00:25:01.704Z,0
2019-02-10T00:26:01.199Z,0
2019-02-10T00:27:01.960Z,0
2019-02-10T00:28:01.452Z,0
2019-02-10T00:29:01.635Z,0
2019-02-10T00:30:01.636Z,0
2019-02-10T00:31:01.612Z,0
2019-02-10T00:32:01.342Z,0
2019-02-10T00:33:02.089Z,0
2019-02-10T00:34:01.340Z,0
2019-02-10T00:35:01.911Z,0
2019-02-10T00:36:01.839Z,0
2019-02-10T00:37:01.567Z,0
2019-02-10T00:38:01.811Z,0
2019-02-10T00:39:01.798Z,0
2019-02-10T00:40:01.554Z,0
2019-02-10T00:41:01.271Z,0
2019-02-10T00:42:01.264Z,0
2019-02-10T00:43:01.747Z,0
2019-02-10T00:44:01.791Z,0
2019-02-10T00:45:01.778Z,0
2019-02-10T00:46:01.509Z,0
2019-02-10T00:47:01.248Z,0
2019-02-10T00:48:01.660Z,0
2019-02-10T00:49:01.452Z,0
2019-02-10T00:50:01.209Z,0
2019-02-10T00:51:01.500Z,0
2019-02-10T00:52:01.444Z,0
2019-02-10T00:53:01.675Z,0
2019-02-10T00:54:01.682Z,0
2019-02-10T00:55:01.930Z,0
2019-02-10T00:56:01.394Z,0
2019-02-10T00:57:01.392Z,0
2019-02-10T00:58:01.388Z,0
2019-02-10T00:59:01.381Z,0
2019-02-10T01:00:01.383Z,0
2019-02-10T01:01:01.712Z,0
2019-02-10T01:02:01.626Z,0
2019-02-10T01:03:01.359Z,0
2019-02-10T01:04:01.076Z,0
2019-02-10T01:05:01.578Z,0
2019-02-10T01:06:01.316Z,0
2019-02-10T01:07:01.064Z,0
2019-02-10T01:08:01.339Z,0
2019-02-10T01:09:01.324Z,0
2019-02-10T01:10:01.620Z,0
2019-02-10T01:11:01.793Z,0
2019-02-10T01:12:01.572Z,0
2019-02-10T01:13:01.544Z,0
2019-02-10T01:14:01.511Z,0
2019-02-10T01:15:01.748Z,0
2019-02-10T01:16:01.243Z,0
2019-02-10T01:17:01.464Z,0
2019-02-10T01:18:01.876Z,0
2019-02-10T01:19:01.715Z,0
2019-02-10T01:20:01.454Z,0
2019-02-10T01:21:00.955Z,0
2019-02-10T01:22:01.680Z,0
2019-02-10T01:23:01.187Z,0
2019-02-10T01:24:01.186Z,0
2019-02-10T01:25:01.399Z,0
2019-02-10T01:26:01.390Z,0
2019-02-10T01:27:01.372Z,0
2019-02-10T01:28:01.400Z,0
2019-02-10T01:29:00.612Z,0
2019-02-10T01:30:01.382Z,0
2019-02-10T01:31:01.363Z,0
2019-02-10T01:32:01.157Z,0
2019-02-10T01:33:01.353Z,0
2019-02-10T01:34:01.326Z,0
2019-02-10T01:35:01.309Z,0
2019-02-10T01:36:00.839Z,0
2019-02-10T01:37:01.318Z,0
2019-02-10T01:38:01.309Z,0
2019-02-10T01:39:01.556Z,0
2019-02-10T01:40:01.085Z,0
2019-02-10T01:41:00.784Z,0
2019-02-10T01:42:01.051Z,0
2019-02-10T01:43:00.989Z,0
2019-02-10T01:44:00.481Z,0
2019-02-10T01:45:00.754Z,0
2019-02-10T01:46:01.488Z,0
2019-02-10T01:47:01.246Z,0
2019-02-10T01:48:01.233Z,0
2019-02-10T01:49:01.224Z,0
2019-02-10T01:50:01.223Z,0
2019-02-10T01:51:01.400Z,0
2019-02-10T01:52:01.190Z,0
2019-02-10T01:53:01.207Z,0
2019-02-10T01:54:00.706Z,0
2019-02-10T01:55:00.935Z,0
2019-02-10T01:56:01.156Z,0
2019-02-10T01:57:01.146Z,0
2019-02-10T01:58:00.878Z,0
2019-02-10T01:59:00.606Z,0
2019-02-10T02:00:01.099Z,0
2019-02-10T02:01:00.872Z,0
2019-02-10T02:02:00.872Z,0
2019-02-10T02:03:00.838Z,0
2019-02-10T02:04:00.559Z,0
2019-02-10T02:05:01.327Z,0
2019-02-10T02:06:01.098Z,0
2019-02-10T02:07:06.877Z,0
2019-02-10T02:08:02.121Z,0
2019-02-10T02:09:00.831Z,0
2019-02-10T02:10:00.781Z,0
2019-02-10T02:11:00.772Z,0
2019-02-10T02:12:01.009Z,0
2019-02-10T02:13:00.762Z,0
2019-02-10T02:14:01.012Z,0
2019-02-10T02:15:00.498Z,0
2019-02-10T02:16:00.741Z,0
2019-02-10T02:17:01.254Z,0
2019-02-10T02:18:00.974Z,0
2019-02-10T02:19:00.957Z,0
2019-02-10T02:20:00.964Z,0
2019-02-10T02:21:00.927Z,0
2019-02-10T02:22:00.904Z,0
2019-02-10T02:23:00.900Z,0
2019-02-10T02:24:00.895Z,0
2019-02-10T02:25:01.159Z,0
2019-02-10T02:26:00.645Z,0
2019-02-10T02:27:01.125Z,0
2019-02-10T02:28:00.897Z,0
2019-02-10T02:29:00.628Z,0
2019-02-10T02:30:00.853Z,0
2019-02-10T02:31:01.113Z,0
2019-02-10T02:32:01.113Z,0
2019-02-10T02:33:00.668Z,0
2019-02-10T02:34:00.877Z,0
2019-02-10T02:35:00.885Z,0
2019-02-10T02:36:00.563Z,0
2019-02-10T02:37:10.003Z,0
2019-02-10T02:38:00.564Z,0
2019-02-10T02:39:00.518Z,0
2019-02-10T02:40:01.035Z,0
2019-02-10T02:41:00.752Z,0
2019-02-10T02:42:00.254Z,0
2019-02-10T02:43:00.730Z,0
2019-02-10T02:44:00.967Z,0
2019-02-10T02:45:00.978Z,0
2019-02-10T02:46:00.717Z,0
2019-02-10T02:47:00.951Z,0
2019-02-10T02:48:00.932Z,0
2019-02-10T02:49:01.007Z,0
2019-02-10T02:50:00.484Z,0
2019-02-10T02:51:01.047Z,0
2019-02-10T02:52:00.418Z,0
2019-02-10T02:53:00.886Z,0
2019-02-10T02:54:00.645Z,0
2019-02-10T02:55:00.405Z,0
2019-02-10T02:56:00.892Z,0
2019-02-10T02:57:00.622Z,0
2019-02-10T02:58:00.626Z,0
2019-02-10T02:59:00.583Z,0
2019-02-10T03:00:00.586Z,0
2019-02-10T03:01:00.812Z,0
2019-02-10T03:02:00.583Z,0
2019-02-10T03:03:00.338Z,0
2019-02-10T03:04:00.575Z,0
2019-02-10T03:05:00.534Z,0
2019-02-10T03:06:00.550Z,0
2019-02-10T03:07:00.561Z,0
2019-02-10T03:08:00.283Z,0
2019-02-10T03:09:00.046Z,0
2019-02-10T03:10:00.509Z,0
2019-02-10T03:11:00.754Z,0
2019-02-10T03:12:00.498Z,0
2019-02-10T03:13:00.495Z,0
2019-02-10T03:14:00.217Z,0
2019-02-10T03:15:00.709Z,0
2019-02-10T03:16:00.767Z,0
2019-02-10T03:17:00.174Z,0
2019-02-10T03:18:00.478Z,0
2019-02-10T03:19:02.591Z,0
2019-02-10T03:20:00.658Z,0
2019-02-10T03:21:00.185Z,0
2019-02-10T03:21:59.912Z,0
2019-02-10T03:23:00.149Z,0
2019-02-10T03:24:00.657Z,0
2019-02-10T03:25:00.249Z,0
2019-02-10T03:26:00.350Z,0
2019-02-10T03:27:00.625Z,0
2019-02-10T03:28:00.332Z,0
2019-02-10T03:29:00.319Z,0
2019-02-10T03:29:59.822Z,0
2019-02-10T03:31:00.684Z,0
2019-02-10T03:32:00.654Z,0
2019-02-10T03:33:00.573Z,0
2019-02-10T03:34:00.542Z,0
2019-02-10T03:35:00.295Z,0
2019-02-10T03:36:00.555Z,0
2019-02-10T03:37:00.015Z,0
2019-02-10T03:37:59.823Z,0
2019-02-10T03:39:00.643Z,0
2019-02-10T03:40:00.361Z,0
2019-02-10T03:40:59.979Z,0
2019-02-10T03:42:00.474Z,0
2019-02-10T03:42:59.970Z,0
2019-02-10T03:44:00.464Z,0
2019-02-10T03:45:00.311Z,0
2019-02-10T03:46:00.181Z,0
2019-02-10T03:47:00.200Z,0
2019-02-10T03:47:59.976Z,0
2019-02-10T03:48:59.715Z,0
2019-02-10T03:50:00.684Z,0
2019-02-10T03:51:00.376Z,0
2019-02-10T03:52:00.149Z,0
2019-02-10T03:53:00.134Z,0
2019-02-10T03:54:00.116Z,0
2019-02-10T03:55:00.444Z,0
2019-02-10T03:56:00.370Z,0
2019-02-10T03:57:00.364Z,0
2019-02-10T03:58:00.332Z,0
2019-02-10T03:59:00.076Z,0
2019-02-10T04:00:00.144Z,0
2019-02-10T04:01:00.067Z,0
2019-02-10T04:02:00.041Z,0
2019-02-10T04:03:00.303Z,0
2019-02-10T04:04:00.085Z,0
2019-02-10T04:05:00.045Z,0
2019-02-10T04:05:59.777Z,0
2019-02-10T04:07:00.027Z,0
2019-02-10T04:08:00.254Z,0
2019-02-10T04:09:00.291Z,0
2019-02-10T04:10:00.402Z,0
2019-02-10T04:10:59.477Z,0
2019-02-10T04:11:59.724Z,0
2019-02-10T04:13:00.200Z,0
2019-02-10T04:13:59.711Z,0
2019-02-10T04:14:59.951Z,0
2019-02-10T04:16:00.184Z,0
2019-02-10T04:16:59.916Z,0
2019-02-10T04:18:00.151Z,0
2019-02-10T04:19:00.138Z,0
2019-02-10T04:19:59.897Z,0
2019-02-10T04:21:00.128Z,0
2019-02-10T04:22:00.145Z,0
2019-02-10T04:22:59.863Z,0
2019-02-10T04:23:59.863Z,0
2019-02-10T04:24:59.884Z,0
2019-02-10T04:25:59.865Z,0
2019-02-10T04:26:59.821Z,0
2019-02-10T04:27:59.866Z,0
2019-02-10T04:29:00.058Z,0
2019-02-10T04:29:59.818Z,0
2019-02-10T04:30:59.805Z,0
2019-02-10T04:32:00.061Z,0
2019-02-10T04:32:59.813Z,0
2019-02-10T04:34:01.383Z,0
2019-02-10T04:34:59.806Z,0
2019-02-10T04:36:00.074Z,0
2019-02-10T04:36:59.796Z,0
2019-02-10T04:37:59.752Z,0
2019-02-10T04:39:00.559Z,0
2019-02-10T04:39:59.745Z,0
2019-02-10T04:40:59.740Z,0
2019-02-10T04:41:59.979Z,0
2019-02-10T04:42:59.728Z,0
2019-02-10T04:43:59.951Z,0
2019-02-10T04:44:59.725Z,0
2019-02-10T04:45:59.927Z,0
2019-02-10T04:46:59.918Z,0
2019-02-10T04:47:59.186Z,0
2019-02-10T04:48:59.690Z,0
2019-02-10T04:49:59.667Z,0
2019-02-10T04:50:59.700Z,0
2019-02-10T04:51:59.414Z,0
2019-02-10T04:52:59.400Z,0
2019-02-10T04:54:00.429Z,0
2019-02-10T04:54:59.636Z,0
2019-02-10T04:55:59.113Z,0
2019-02-10T04:56:59.614Z,0
2019-02-10T04:57:59.595Z,0
2019-02-10T04:58:59.604Z,0
2019-02-10T04:59:59.590Z,0
2019-02-10T05:00:59.574Z,0
2019-02-10T05:01:59.321Z,0
2019-02-10T05:02:59.811Z,0
2019-02-10T05:03:59.825Z,0
2019-02-10T05:04:59.837Z,0
2019-02-10T05:05:59.055Z,0
2019-02-10T05:06:59.278Z,0
2019-02-10T05:08:04.038Z,0
2019-02-10T05:08:59.506Z,0
2019-02-10T05:09:59.278Z,0
2019-02-10T05:10:59.491Z,0
2019-02-10T05:11:59.251Z,0
2019-02-10T05:12:59.500Z,0
2019-02-10T05:13:59.517Z,0
2019-02-10T05:14:59.491Z,0
2019-02-10T05:15:59.743Z,0
2019-02-10T05:16:58.994Z,0
2019-02-10T05:17:59.475Z,0
2019-02-10T05:18:59.448Z,0
2019-02-10T05:19:59.448Z,0
2019-02-10T05:20:59.464Z,0
2019-02-10T05:21:59.685Z,0
2019-02-10T05:22:59.428Z,0
2019-02-10T05:24:07.824Z,0
2019-02-10T05:24:58.931Z,0
2019-02-10T05:25:59.444Z,0
2019-02-10T05:26:59.706Z,0
2019-02-10T05:27:59.122Z,0
2019-02-10T05:28:59.625Z,0
2019-02-10T05:29:59.371Z,0
2019-02-10T05:30:59.371Z,0
2019-02-10T05:31:59.357Z,0
2019-02-10T05:32:59.372Z,0
2019-02-10T05:33:59.585Z,0
2019-02-10T05:34:58.832Z,0
2019-02-10T05:35:59.346Z,0
2019-02-10T05:36:59.153Z,0
2019-02-10T05:38:08.407Z,0
2019-02-10T05:38:59.565Z,0
2019-02-10T05:39:59.058Z,0
2019-02-10T05:40:58.834Z,0
2019-02-10T05:41:58.857Z,0
2019-02-10T05:42:59.080Z,0
2019-02-10T05:43:59.579Z,0
2019-02-10T05:44:59.255Z,0
2019-02-10T05:45:59.001Z,0
2019-02-10T05:46:59.326Z,0
2019-02-10T05:47:59.252Z,0
2019-02-10T05:48:59.271Z,0
2019-02-10T05:49:59.227Z,0
2019-02-10T05:50:58.973Z,0
2019-02-10T05:51:58.972Z,0
2019-02-10T05:52:59.200Z,0
2019-02-10T05:53:59.240Z,0
2019-02-10T05:54:59.190Z,0
2019-02-10T05:55:59.214Z,0
2019-02-10T05:56:59.495Z,0
2019-02-10T05:57:59.173Z,0
2019-02-10T05:58:59.446Z,0
2019-02-10T05:59:58.630Z,0
2019-02-10T06:00:59.213Z,0
2019-02-10T06:01:59.405Z,0
2019-02-10T06:02:59.387Z,0
2019-02-10T06:03:58.865Z,0
2019-02-10T06:04:59.334Z,0
2019-02-10T06:05:58.596Z,0
2019-02-10T06:06:59.087Z,0
2019-02-10T06:07:59.339Z,0
2019-02-10T06:08:59.066Z,0
2019-02-10T06:09:59.050Z,0
2019-02-10T06:10:59.279Z,0
2019-02-10T06:11:59.296Z,0
2019-02-10T06:12:58.799Z,0
2019-02-10T06:13:59.278Z,0
2019-02-10T06:14:59.023Z,0
2019-02-10T06:15:59.288Z,0
2019-02-10T06:16:58.517Z,0
2019-02-10T06:17:58.755Z,0
2019-02-10T06:18:59.257Z,0
2019-02-10T06:19:58.986Z,0
2019-02-10T06:20:59.252Z,0
2019-02-10T06:21:58.730Z,0
2019-02-10T06:22:58.481Z,0
2019-02-10T06:23:58.960Z,0
2019-02-10T06:24:58.465Z,0
2019-02-10T06:25:58.968Z,0
2019-02-10T06:26:59.199Z,0
2019-02-10T06:27:58.943Z,0
2019-02-10T06:28:58.909Z,0
2019-02-10T06:29:58.667Z,0
2019-02-10T06:30:58.475Z,0
2019-02-10T06:31:58.934Z,0
2019-02-10T06:32:58.668Z,0
2019-02-10T06:33:58.669Z,0
2019-02-10T06:35:00.776Z,0
2019-02-10T06:35:58.887Z,0
2019-02-10T06:36:58.623Z,0
2019-02-10T06:37:58.628Z,0
2019-02-10T06:38:58.607Z,0
2019-02-10T06:39:58.376Z,0
2019-02-10T06:40:58.620Z,0
2019-02-10T06:41:58.577Z,0
2019-02-10T06:42:58.856Z,0
2019-02-10T06:43:58.321Z,0
2019-02-10T06:44:58.572Z,0
2019-02-10T06:45:59.030Z,0
2019-02-10T06:46:58.529Z,0
2019-02-10T06:48:00.268Z,0
2019-02-10T06:48:58.556Z,0
2019-02-10T06:49:58.267Z,0
2019-02-10T06:50:58.752Z,0
2019-02-10T06:51:58.740Z,0
2019-02-10T06:52:58.732Z,0
2019-02-10T06:53:57.972Z,0
2019-02-10T06:54:58.975Z,0
2019-02-10T06:55:58.219Z,0
2019-02-10T06:56:58.477Z,5
2019-02-10T06:57:58.969Z,5
2019-02-10T06:58:58.703Z,5
2019-02-10T06:59:58.938Z,5
2019-02-10T07:00:58.683Z,5
2019-02-10T07:01:58.409Z,5
2019-02-10T07:02:57.912Z,5
2019-02-10T07:03:58.171Z,5
2019-02-10T07:04:58.899Z,5
2019-02-10T07:05:57.933Z,5
2019-02-10T07:06:58.395Z,5
2019-02-10T07:07:58.392Z,5
2019-02-10T07:08:58.874Z,5
2019-02-10T07:09:58.101Z,10
2019-02-10T07:10:58.610Z,10
2019-02-10T07:11:58.910Z,10
2019-02-10T07:12:58.354Z,10
2019-02-10T07:13:57.868Z,10
2019-02-10T07:14:58.577Z,15
2019-02-10T07:15:58.569Z,15
2019-02-10T07:16:58.304Z,15
2019-02-10T07:17:58.561Z,15
2019-02-10T07:18:58.292Z,15
2019-02-10T07:19:58.858Z,15
2019-02-10T07:20:58.295Z,20
2019-02-10T07:21:58.291Z,20
2019-02-10T07:22:58.798Z,20
2019-02-10T07:23:58.567Z,20
2019-02-10T07:24:58.258Z,20
2019-02-10T07:25:58.003Z,25
2019-02-10T07:26:58.504Z,25
2019-02-10T07:27:58.505Z,25
2019-02-10T07:28:57.740Z,25
2019-02-10T07:29:58.486Z,30
2019-02-10T07:30:57.969Z,30
2019-02-10T07:31:58.235Z,30
2019-02-10T07:32:58.209Z,30
2019-02-10T07:33:58.754Z,30
2019-02-10T07:35:02.524Z,30
2019-02-10T07:35:58.437Z,35
2019-02-10T07:36:57.937Z,35
2019-02-10T07:37:58.159Z,35
2019-02-10T07:38:58.412Z,35
2019-02-10T07:39:58.412Z,35
2019-02-10T07:40:58.143Z,35
2019-02-10T07:41:58.138Z,40
2019-02-10T07:42:58.151Z,40
2019-02-10T07:43:57.938Z,40
2019-02-10T07:44:58.434Z,45
2019-02-10T07:45:57.857Z,45
2019-02-10T07:46:58.373Z,45
2019-02-10T07:47:59.235Z,45
2019-02-10T07:48:58.354Z,50
2019-02-10T07:49:58.115Z,50
2019-02-10T07:50:58.588Z,50
2019-02-10T07:51:58.068Z,50
2019-02-10T07:52:58.368Z,50
2019-02-10T07:53:58.061Z,55
2019-02-10T07:54:58.549Z,55
2019-02-10T07:55:58.844Z,55
2019-02-10T07:56:58.293Z,55
2019-02-10T07:57:58.292Z,60
2019-02-10T07:58:58.010Z,60
2019-02-10T07:59:58.260Z,60
2019-02-10T08:00:58.279Z,65
2019-02-10T08:01:58.337Z,65
2019-02-10T08:02:58.002Z,65
2019-02-10T08:03:58.011Z,70
2019-02-10T08:04:58.238Z,70
2019-02-10T08:06:04.374Z,70
2019-02-10T08:06:58.081Z,70
2019-02-10T08:07:58.298Z,70
2019-02-10T08:08:57.967Z,75
2019-02-10T08:09:57.961Z,75
2019-02-10T08:10:57.984Z,75
2019-02-10T08:11:58.190Z,75
2019-02-10T08:12:57.936Z,75
2019-02-10T08:13:57.934Z,80
2019-02-10T08:14:58.185Z,80
2019-02-10T08:15:58.434Z,80
2019-02-10T08:16:57.937Z,80
2019-02-10T08:17:58.156Z,85
2019-02-10T08:18:58.396Z,85
2019-02-10T08:19:57.418Z,85
2019-02-10T08:20:58.387Z,90
2019-02-10T08:21:58.377Z,90
2019-02-10T08:22:58.147Z,95
2019-02-10T08:23:58.107Z,95
2019-02-10T08:24:57.869Z,95
2019-02-10T08:25:58.141Z,100
2019-02-10T08:26:57.880Z,105
2019-02-10T08:27:57.879Z,110
2019-02-10T08:28:58.124Z,115
2019-02-10T08:29:57.838Z,120
2019-02-10T08:30:58.314Z,125
2019-02-10T08:31:58.304Z,125
2019-02-10T08:32:58.320Z,125
2019-02-10T08:33:59.655Z,125
2019-02-10T08:34:57.813Z,125
2019-02-10T08:35:57.799Z,125
2019-02-10T08:36:58.325Z,125
2019-02-10T08:37:58.058Z,125
2019-02-10T08:39:03.523Z,120
2019-02-10T08:39:57.772Z,120
2019-02-10T08:40:58.249Z,115
2019-02-10T08:41:57.789Z,110
2019-02-10T08:42:58.007Z,105
2019-02-10T08:43:58.000Z,100
2019-02-10T08:44:57.762Z,95
2019-02-10T08:45:57.982Z,90
2019-02-10T08:46:57.479Z,85
2019-02-10T08:47:57.771Z,80
2019-02-10T08:48:57.996Z,75
2019-02-10T08:49:58.228Z,70
2019-02-10T08:50:57.731Z,70
2019-02-10T08:51:57.337Z,65
2019-02-10T08:53:01.597Z,65
2019-02-10T08:53:57.931Z,65
2019-02-10T08:54:57.937Z,70
2019-02-10T08:55:57.688Z,70
2019-02-10T08:56:57.449Z,75
2019-02-10T08:57:57.420Z,75
2019-02-10T08:58:57.674Z,75
2019-02-10T08:59:57.418Z,75
2019-02-10T09:00:57.651Z,75
2019-02-10T09:01:59.048Z,75
2019-02-10T09:02:57.669Z,75
2019-02-10T09:03:57.900Z,80
2019-02-10T09:04:57.672Z,80
2019-02-10T09:05:57.397Z,85
2019-02-10T09:06:57.934Z,90
2019-02-10T09:07:57.395Z,95
2019-02-10T09:09:05.052Z,100
2019-02-10T09:09:57.656Z,105
2019-02-10T09:10:58.115Z,110
2019-02-10T09:11:58.106Z,115
2019-02-10T09:12:59.711Z,120
2019-02-10T09:13:57.585Z,135
2019-02-10T09:14:57.885Z,135
2019-02-10T09:15:58.078Z,140
2019-02-10T09:16:57.907Z,145
2019-02-10T09:17:57.846Z,150
2019-02-10T09:18:58.113Z,150
2019-02-10T09:19:57.828Z,150
2019-02-10T09:20:57.807Z,150
2019-02-10T09:21:57.871Z,155
2019-02-10T09:22:57.810Z,155
2019-02-10T09:23:57.791Z,160
2019-02-10T09:24:57.544Z,160
2019-02-10T09:25:57.790Z,160
2019-02-10T09:26:57.803Z,160
2019-02-10T09:27:57.317Z,160
2019-02-10T09:28:57.307Z,160
2019-02-10T09:29:58.010Z,155
2019-02-10T09:30:57.768Z,155
2019-02-10T09:31:57.525Z,155
2019-02-10T09:32:57.310Z,155
2019-02-10T09:33:57.518Z,155
2019-02-10T09:34:57.986Z,155
2019-02-10T09:35:57.482Z,155
2019-02-10T09:36:57.807Z,155
2019-02-10T09:37:57.500Z,155
2019-02-10T09:38:57.492Z,150
2019-02-10T09:39:57.476Z,150
2019-02-10T09:40:57.485Z,150
2019-02-10T09:41:57.489Z,160
2019-02-10T09:42:57.488Z,165
2019-02-10T09:43:57.277Z,180
2019-02-10T09:44:57.949Z,185
2019-02-10T09:45:57.963Z,190
2019-02-10T09:46:57.490Z,195
2019-02-10T09:47:57.949Z,190
2019-02-10T09:48:57.187Z,200
2019-02-10T09:49:57.948Z,210
2019-02-10T09:50:57.680Z,210
2019-02-10T09:51:57.749Z,200
2019-02-10T09:52:57.695Z,195
2019-02-10T09:53:57.688Z,215
2019-02-10T09:54:57.704Z,200
2019-02-10T09:55:57.216Z,200
2019-02-10T09:56:57.934Z,200
2019-02-10T09:57:57.423Z,195
2019-02-10T09:58:57.658Z,225
2019-02-10T09:59:57.900Z,210
2019-02-10T10:00:57.176Z,230
2019-02-10T10:01:57.636Z,240
2019-02-10T10:02:57.155Z,245
2019-02-10T10:03:57.704Z,215
2019-02-10T10:04:57.898Z,245
2019-02-10T10:05:57.875Z,235
2019-02-10T10:06:57.686Z,235
2019-02-10T10:07:57.638Z,250
2019-02-10T10:08:57.158Z,220
2019-02-10T10:09:57.877Z,220
2019-02-10T10:10:57.879Z,215
2019-02-10T10:11:57.630Z,235
2019-02-10T10:12:57.875Z,225
2019-02-10T10:13:57.397Z,220
2019-02-10T10:14:57.116Z,220
2019-02-10T10:15:57.845Z,240
2019-02-10T10:16:57.854Z,240
2019-02-10T10:17:57.883Z,245
2019-02-10T10:18:57.600Z,240
2019-02-10T10:19:59.718Z,245
2019-02-10T10:20:57.853Z,245
2019-02-10T10:21:57.639Z,245
2019-02-10T10:22:57.571Z,240
2019-02-10T10:23:57.838Z,240
2019-02-10T10:25:00.623Z,230
2019-02-10T10:25:57.832Z,230
2019-02-10T10:26:57.852Z,240
2019-02-10T10:27:57.847Z,250
2019-02-10T10:28:57.320Z,260
2019-02-10T10:29:57.594Z,235
2019-02-10T10:30:57.572Z,220
2019-02-10T10:31:57.562Z,215
2019-02-10T10:32:57.347Z,210
2019-02-10T10:33:57.823Z,205
2019-02-10T10:34:57.547Z,205
2019-02-10T10:35:57.828Z,205
2019-02-10T10:36:57.922Z,205
2019-02-10T10:37:57.819Z,205
2019-02-10T10:38:57.269Z,205
2019-02-10T10:39:58.934Z,205
2019-02-10T10:40:58.183Z,205
2019-02-10T10:41:57.547Z,205
2019-02-10T10:42:57.803Z,205
2019-02-10T10:43:57.554Z,205
2019-02-10T10:44:57.318Z,210
2019-02-10T10:45:57.549Z,210
2019-02-10T10:46:57.788Z,215
2019-02-10T10:47:57.822Z,220
2019-02-10T10:48:57.538Z,225
2019-02-10T10:49:57.783Z,230
2019-02-10T10:50:57.775Z,240
2019-02-10T10:51:57.581Z,240
2019-02-10T10:52:57.544Z,245
2019-02-10T10:53:57.052Z,235
2019-02-10T10:54:57.560Z,230
2019-02-10T10:55:57.773Z,230
2019-02-10T10:56:57.529Z,230
2019-02-10T10:57:57.782Z,225
2019-02-10T10:58:57.786Z,225
2019-02-10T10:59:57.548Z,220
2019-02-10T11:00:57.765Z,220
2019-02-10T11:01:57.521Z,215
2019-02-10T11:02:57.758Z,220
2019-02-10T11:03:57.763Z,215
2019-02-10T11:04:57.766Z,210
2019-02-10T11:05:57.751Z,205
2019-02-10T11:06:57.586Z,200
2019-02-10T11:07:57.492Z,195
2019-02-10T11:08:57.255Z,185
2019-02-10T11:09:57.528Z,170
2019-02-10T11:10:57.498Z,160
2019-02-10T11:11:58.898Z,160
2019-02-10T11:12:57.758Z,165
2019-02-10T11:13:57.762Z,170
2019-02-10T11:14:57.246Z,180
2019-02-10T11:15:59.644Z,185
2019-02-10T11:16:57.742Z,190
2019-02-10T11:17:57.734Z,190
2019-02-10T11:18:57.502Z,195
2019-02-10T11:19:57.739Z,195
2019-02-10T11:20:57.506Z,195
2019-02-10T11:21:57.556Z,195
2019-02-10T11:22:57.497Z,195
2019-02-10T11:23:57.291Z,205
2019-02-10T11:24:57.247Z,215
2019-02-10T11:25:57.496Z,225
2019-02-10T11:26:57.726Z,235
2019-02-10T11:27:57.484Z,245
2019-02-10T11:28:57.540Z,240
2019-02-10T11:29:57.245Z,240
2019-02-10T11:30:57.250Z,245
2019-02-10T11:31:57.725Z,245
2019-02-10T11:32:57.471Z,240
2019-02-10T11:33:57.744Z,235
2019-02-10T11:34:57.716Z,235
2019-02-10T11:35:57.474Z,235
2019-02-10T11:36:58.335Z,240
2019-02-10T11:37:57.477Z,245
2019-02-10T11:38:57.721Z,250
2019-02-10T11:39:57.468Z,255
2019-02-10T11:40:57.232Z,270
2019-02-10T11:41:58.283Z,255
2019-02-10T11:42:57.265Z,245
2019-02-10T11:43:57.724Z,245
2019-02-10T11:44:57.723Z,250
2019-02-10T11:45:57.477Z,245
2019-02-10T11:46:57.478Z,235
2019-02-10T11:47:57.467Z,225
2019-02-10T11:48:56.966Z,220
2019-02-10T11:49:57.447Z,215
2019-02-10T11:50:57.253Z,210
2019-02-10T11:51:57.260Z,205
2019-02-10T11:52:56.957Z,205
2019-02-10T11:53:57.207Z,205
2019-02-10T11:54:57.235Z,215
2019-02-10T11:55:56.956Z,225
2019-02-10T11:56:57.699Z,250
2019-02-10T11:57:57.723Z,245
2019-02-10T11:58:57.466Z,255
2019-02-10T11:59:56.966Z,255
2019-02-10T12:00:56.975Z,255
2019-02-10T12:01:57.017Z,270
2019-02-10T12:02:57.240Z,260
2019-02-10T12:03:56.737Z,225
2019-02-10T12:04:57.721Z,200
2019-02-10T12:05:56.970Z,190
2019-02-10T12:06:57.692Z,200
2019-02-10T12:07:57.518Z,185
2019-02-10T12:08:57.443Z,165
2019-02-10T12:10:01.148Z,155
2019-02-10T12:10:57.211Z,150
2019-02-10T12:11:57.476Z,160
2019-02-10T12:12:57.221Z,155
2019-02-10T12:13:57.738Z,140
2019-02-10T12:14:57.219Z,135
2019-02-10T12:15:57.442Z,135
2019-02-10T12:16:56.965Z,145
2019-02-10T12:17:57.249Z,160
2019-02-10T12:18:57.440Z,170
2019-02-10T12:19:57.477Z,185
2019-02-10T12:20:57.233Z,190
2019-02-10T12:21:57.478Z,190
2019-02-10T12:23:00.089Z,195
2019-02-10T12:23:57.713Z,205
2019-02-10T12:24:57.695Z,205
2019-02-10T12:25:57.710Z,195
2019-02-10T12:26:57.496Z,185
2019-02-10T12:27:57.464Z,165
2019-02-10T12:28:57.204Z,155
2019-02-10T12:29:57.222Z,165
2019-02-10T12:30:57.464Z,175
2019-02-10T12:31:56.945Z,180
2019-02-10T12:32:57.216Z,180
2019-02-10T12:33:56.953Z,195
2019-02-10T12:34:57.447Z,200
2019-02-10T12:36:04.985Z,205
2019-02-10T12:36:56.988Z,205
2019-02-10T12:37:57.291Z,210
2019-02-10T12:38:57.221Z,205
2019-02-10T12:40:04.524Z,215
2019-02-10T12:40:57.753Z,235
2019-02-10T12:41:57.210Z,235
2019-02-10T12:42:57.211Z,240
2019-02-10T12:43:57.206Z,235
2019-02-10T12:44:57.452Z,200
2019-02-10T12:45:57.703Z,170
2019-02-10T12:46:57.207Z,145
2019-02-10T12:47:57.687Z,120
2019-02-10T12:48:57.196Z,95
2019-02-10T12:49:57.170Z,95
2019-02-10T12:50:57.208Z,110
2019-02-10T12:51:57.440Z,135
2019-02-10T12:52:56.978Z,150
2019-02-10T12:53:56.934Z,160
2019-02-10T12:54:57.196Z,180
2019-02-10T12:55:56.955Z,185
2019-02-10T12:56:57.155Z,175
2019-02-10T12:57:56.912Z,140
2019-02-10T12:58:57.180Z,110
2019-02-10T12:59:56.902Z,120
2019-02-10T13:00:57.158Z,140
2019-02-10T13:01:57.673Z,155
2019-02-10T13:02:57.172Z,160
2019-02-10T13:03:56.928Z,155
2019-02-10T13:04:57.175Z,155
2019-02-10T13:05:57.792Z,145
2019-02-10T13:06:57.396Z,145
2019-02-10T13:07:57.199Z,145
2019-02-10T13:08:57.155Z,150
2019-02-10T13:09:57.393Z,150
2019-02-10T13:10:57.158Z,145
2019-02-10T13:12:04.941Z,140
2019-02-10T13:12:58.334Z,125
2019-02-10T13:13:57.435Z,110
2019-02-10T13:14:57.623Z,105
2019-02-10T13:15:57.737Z,105
2019-02-10T13:16:57.148Z,105
2019-02-10T13:17:57.382Z,100
2019-02-10T13:18:57.131Z,90
2019-02-10T13:19:58.453Z,80
2019-02-10T13:20:57.382Z,75
2019-02-10T13:21:57.377Z,65
2019-02-10T13:22:57.680Z,65
2019-02-10T13:23:57.123Z,60
2019-02-10T13:24:56.872Z,55
2019-02-10T13:25:57.807Z,55
2019-02-10T13:26:56.860Z,60
2019-02-10T13:27:56.852Z,60
2019-02-10T13:28:57.336Z,60
2019-02-10T13:29:57.358Z,60
2019-02-10T13:30:57.095Z,60
2019-02-10T13:31:57.220Z,60
2019-02-10T13:32:57.081Z,60
2019-02-10T13:33:57.581Z,60
2019-02-10T13:34:57.054Z,60
2019-02-10T13:35:57.102Z,60
2019-02-10T13:36:57.088Z,65
2019-02-10T13:37:57.143Z,70
2019-02-10T13:38:57.053Z,65
2019-02-10T13:39:57.072Z,65
2019-02-10T13:40:57.085Z,70
2019-02-10T13:41:57.323Z,70
2019-02-10T13:42:57.753Z,65
2019-02-10T13:43:57.542Z,65
2019-02-10T13:44:57.330Z,70
2019-02-10T13:45:56.790Z,80
2019-02-10T13:46:56.767Z,90
2019-02-10T13:47:58.558Z,90
2019-02-10T13:48:57.270Z,95
2019-02-10T13:49:57.015Z,100
2019-02-10T13:50:57.018Z,100
2019-02-10T13:51:57.259Z,110
2019-02-10T13:52:57.549Z,110
2019-02-10T13:53:57.017Z,105
2019-02-10T13:54:57.237Z,95
2019-02-10T13:55:57.210Z,95
2019-02-10T13:56:56.981Z,90
2019-02-10T13:57:56.733Z,85
2019-02-10T13:58:57.206Z,80
2019-02-10T13:59:57.499Z,80
2019-02-10T14:00:56.964Z,75
2019-02-10T14:01:56.966Z,70
2019-02-10T14:02:56.972Z,75
2019-02-10T14:03:57.197Z,75
2019-02-10T14:04:56.691Z,80
2019-02-10T14:05:56.935Z,80
2019-02-10T14:06:56.965Z,80
2019-02-10T14:07:57.781Z,80
2019-02-10T14:08:57.178Z,75
2019-02-10T14:09:56.963Z,65
2019-02-10T14:10:56.923Z,65
2019-02-10T14:11:58.708Z,60
2019-02-10T14:12:56.928Z,60
2019-02-10T14:13:56.974Z,55
2019-02-10T14:14:56.942Z,55
2019-02-10T14:15:57.161Z,55
2019-02-10T14:16:56.906Z,55
2019-02-10T14:17:57.173Z,50
2019-02-10T14:18:57.158Z,50
2019-02-10T14:19:56.891Z,50
2019-02-10T14:20:57.472Z,50